sensor_id;sensor_type;location;lat;lon;timestamp;P1;durP1;ratioP1;P2;durP2;ratioP2
8458;SDS011;4266;48.816;9.154;2023-04-16T00:01:45;15.27;;;13.97;;
8458;SDS011;4266;48.816;9.154;2023-04-16T00:04:10;16.83;;;15.07;;
8458;SDS011;4266;48.816;9.154;2023-04-16T00:06:36;15.33;;;13.93;;
8458;SDS011;4266;48.816;9.154;2023-04-16T00:09:03;15.17;;;13.87;;
8458;SDS011;4266;48.816;9.154;2023-04-16T00:11:28;14.70;;;13.30;;
8458;SDS011;4266;48.816;9.154;2023-04-16T00:13:55;14.90;;;13.60;;
8458;SDS011;4266;48.816;9.154;2023-04-16T00:16:20;15.73;;;14.27;;
8458;SDS011;4266;48.816;9.154;2023-04-16T00:18:46;14.87;;;13.47;;
8458;SDS011;4266;48.816;9.154;2023-04-16T00:21:13;15.90;;;14.40;;
8458;SDS011;4266;48.816;9.154;2023-04-16T00:23:39;15.30;;;13.90;;
8458;SDS011;4266;48.816;9.154;2023-04-16T00:26:05;15.10;;;13.60;;
8458;SDS011;4266;48.816;9.154;2023-04-16T00:28:30;15.43;;;13.93;;
8458;SDS011;4266;48.816;9.154;2023-04-16T00:30:56;14.97;;;13.57;;
8458;SDS011;4266;48.816;9.154;2023-04-16T00:33:22;15.07;;;13.73;;
8458;SDS011;4266;48.816;9.154;2023-04-16T00:35:48;14.83;;;13.53;;
8458;SDS011;4266;48.816;9.154;2023-04-16T00:38:13;14.10;;;12.90;;
8458;SDS011;4266;48.816;9.154;2023-04-16T00:40:39;14.47;;;13.20;;
8458;SDS011;4266;48.816;9.154;2023-04-16T00:43:05;15.17;;;13.77;;
8458;SDS011;4266;48.816;9.154;2023-04-16T00:48:13;14.87;;;13.57;;
8458;SDS011;4266;48.816;9.154;2023-04-16T00:50:39;14.03;;;12.83;;
8458;SDS011;4266;48.816;9.154;2023-04-16T00:53:05;14.17;;;12.87;;
8458;SDS011;4266;48.816;9.154;2023-04-16T00:55:31;14.20;;;12.90;;
8458;SDS011;4266;48.816;9.154;2023-04-16T00:57:56;14.57;;;13.27;;
8458;SDS011;4266;48.816;9.154;2023-04-16T01:00:22;14.00;;;12.63;;
8458;SDS011;4266;48.816;9.154;2023-04-16T01:02:48;15.63;;;14.13;;
8458;SDS011;4266;48.816;9.154;2023-04-16T01:05:14;14.60;;;13.33;;
8458;SDS011;4266;48.816;9.154;2023-04-16T01:07:39;13.60;;;12.37;;
8458;SDS011;4266;48.816;9.154;2023-04-16T01:10:06;14.83;;;13.33;;
8458;SDS011;4266;48.816;9.154;2023-04-16T01:12:33;13.03;;;11.87;;
8458;SDS011;4266;48.816;9.154;2023-04-16T01:14:59;13.77;;;12.57;;
8458;SDS011;4266;48.816;9.154;2023-04-16T01:17:25;12.90;;;11.80;;
8458;SDS011;4266;48.816;9.154;2023-04-16T01:19:51;13.80;;;12.50;;
8458;SDS011;4266;48.816;9.154;2023-04-16T01:22:17;12.53;;;11.33;;
8458;SDS011;4266;48.816;9.154;2023-04-16T01:24:43;12.80;;;11.60;;
8458;SDS011;4266;48.816;9.154;2023-04-16T01:27:08;11.97;;;10.87;;
8458;SDS011;4266;48.816;9.154;2023-04-16T01:29:34;12.67;;;11.63;;
8458;SDS011;4266;48.816;9.154;2023-04-16T01:32:00;12.80;;;11.73;;
8458;SDS011;4266;48.816;9.154;2023-04-16T01:34:25;13.33;;;12.10;;
8458;SDS011;4266;48.816;9.154;2023-04-16T01:36:52;12.43;;;11.37;;
8458;SDS011;4266;48.816;9.154;2023-04-16T01:39:19;12.07;;;11.07;;
8458;SDS011;4266;48.816;9.154;2023-04-16T01:41:44;13.80;;;12.40;;
8458;SDS011;4266;48.816;9.154;2023-04-16T01:44:10;11.87;;;10.87;;
8458;SDS011;4266;48.816;9.154;2023-04-16T01:46:37;12.53;;;11.43;;
8458;SDS011;4266;48.816;9.154;2023-04-16T01:49:04;13.40;;;11.00;;
8458;SDS011;4266;48.816;9.154;2023-04-16T01:51:29;11.90;;;10.80;;
8458;SDS011;4266;48.816;9.154;2023-04-16T01:53:55;11.67;;;10.67;;
8458;SDS011;4266;48.816;9.154;2023-04-16T01:56:21;11.67;;;10.57;;
8458;SDS011;4266;48.816;9.154;2023-04-16T01:58:47;11.40;;;10.43;;
8458;SDS011;4266;48.816;9.154;2023-04-16T02:04:05;11.80;;;10.80;;
8458;SDS011;4266;48.816;9.154;2023-04-16T02:06:31;13.07;;;11.83;;
8458;SDS011;4266;48.816;9.154;2023-04-16T02:08:56;12.37;;;11.27;;
8458;SDS011;4266;48.816;9.154;2023-04-16T02:11:23;12.20;;;11.20;;
8458;SDS011;4266;48.816;9.154;2023-04-16T02:13:48;13.23;;;12.10;;
8458;SDS011;4266;48.816;9.154;2023-04-16T02:16:14;12.27;;;11.17;;
8458;SDS011;4266;48.816;9.154;2023-04-16T02:18:41;12.73;;;11.63;;
8458;SDS011;4266;48.816;9.154;2023-04-16T02:21:08;12.63;;;11.60;;
8458;SDS011;4266;48.816;9.154;2023-04-16T02:23:33;12.40;;;11.20;;
8458;SDS011;4266;48.816;9.154;2023-04-16T02:26:01;13.47;;;12.13;;
8458;SDS011;4266;48.816;9.154;2023-04-16T02:28:25;13.30;;;12.13;;
8458;SDS011;4266;48.816;9.154;2023-04-16T02:30:51;12.53;;;11.50;;
8458;SDS011;4266;48.816;9.154;2023-04-16T02:33:17;13.07;;;11.97;;
8458;SDS011;4266;48.816;9.154;2023-04-16T02:35:43;13.17;;;11.97;;
8458;SDS011;4266;48.816;9.154;2023-04-16T02:38:10;12.67;;;11.47;;
8458;SDS011;4266;48.816;9.154;2023-04-16T02:40:36;14.53;;;13.13;;
8458;SDS011;4266;48.816;9.154;2023-04-16T02:43:02;12.83;;;11.63;;
8458;SDS011;4266;48.816;9.154;2023-04-16T02:45:28;13.03;;;11.83;;
8458;SDS011;4266;48.816;9.154;2023-04-16T02:47:54;13.47;;;11.97;;
8458;SDS011;4266;48.816;9.154;2023-04-16T02:50:21;14.20;;;13.00;;
8458;SDS011;4266;48.816;9.154;2023-04-16T02:52:47;15.07;;;13.67;;
8458;SDS011;4266;48.816;9.154;2023-04-16T02:55:12;14.70;;;13.30;;
8458;SDS011;4266;48.816;9.154;2023-04-16T02:57:38;13.67;;;12.37;;
8458;SDS011;4266;48.816;9.154;2023-04-16T03:00:04;13.33;;;12.13;;
8458;SDS011;4266;48.816;9.154;2023-04-16T03:02:32;14.33;;;12.83;;
8458;SDS011;4266;48.816;9.154;2023-04-16T03:04:58;13.83;;;12.47;;
8458;SDS011;4266;48.816;9.154;2023-04-16T03:07:24;13.57;;;12.23;;
8458;SDS011;4266;48.816;9.154;2023-04-16T03:09:49;14.37;;;13.00;;
8458;SDS011;4266;48.816;9.154;2023-04-16T03:12:16;13.80;;;12.57;;
8458;SDS011;4266;48.816;9.154;2023-04-16T03:14:42;15.07;;;13.60;;
8458;SDS011;4266;48.816;9.154;2023-04-16T03:17:08;15.00;;;13.60;;
8458;SDS011;4266;48.816;9.154;2023-04-16T03:19:34;14.20;;;12.90;;
8458;SDS011;4266;48.816;9.154;2023-04-16T03:22:00;14.27;;;12.87;;
8458;SDS011;4266;48.816;9.154;2023-04-16T03:24:26;14.93;;;13.43;;
8458;SDS011;4266;48.816;9.154;2023-04-16T03:26:52;14.90;;;13.43;;
8458;SDS011;4266;48.816;9.154;2023-04-16T03:29:18;15.57;;;14.07;;
8458;SDS011;4266;48.816;9.154;2023-04-16T03:31:44;15.50;;;14.00;;
8458;SDS011;4266;48.816;9.154;2023-04-16T03:34:09;16.07;;;14.50;;
8458;SDS011;4266;48.816;9.154;2023-04-16T03:36:35;16.03;;;14.43;;
8458;SDS011;4266;48.816;9.154;2023-04-16T03:39:01;14.60;;;13.27;;
8458;SDS011;4266;48.816;9.154;2023-04-16T03:41:26;15.40;;;13.97;;
8458;SDS011;4266;48.816;9.154;2023-04-16T03:43:53;15.63;;;14.03;;
8458;SDS011;4266;48.816;9.154;2023-04-16T03:46:19;15.60;;;14.00;;
8458;SDS011;4266;48.816;9.154;2023-04-16T03:48:44;16.10;;;14.40;;
8458;SDS011;4266;48.816;9.154;2023-04-16T03:51:10;15.10;;;13.63;;
8458;SDS011;4266;48.816;9.154;2023-04-16T03:53:36;18.20;;;14.80;;
8458;SDS011;4266;48.816;9.154;2023-04-16T03:56:03;17.77;;;15.97;;
8458;SDS011;4266;48.816;9.154;2023-04-16T03:58:29;15.70;;;14.10;;
8458;SDS011;4266;48.816;9.154;2023-04-16T04:00:55;15.43;;;13.83;;
8458;SDS011;4266;48.816;9.154;2023-04-16T04:03:21;16.27;;;14.30;;
8458;SDS011;4266;48.816;9.154;2023-04-16T04:05:46;15.20;;;13.73;;
8458;SDS011;4266;48.816;9.154;2023-04-16T04:08:12;16.67;;;14.80;;
8458;SDS011;4266;48.816;9.154;2023-04-16T04:10:38;16.03;;;14.53;;
8458;SDS011;4266;48.816;9.154;2023-04-16T04:13:04;16.07;;;14.40;;
8458;SDS011;4266;48.816;9.154;2023-04-16T04:15:29;16.43;;;14.73;;
8458;SDS011;4266;48.816;9.154;2023-04-16T04:17:55;18.43;;;15.60;;
8458;SDS011;4266;48.816;9.154;2023-04-16T04:20:21;18.60;;;15.87;;
8458;SDS011;4266;48.816;9.154;2023-04-16T04:22:46;16.60;;;14.77;;
8458;SDS011;4266;48.816;9.154;2023-04-16T04:25:13;16.43;;;14.70;;
8458;SDS011;4266;48.816;9.154;2023-04-16T04:27:39;20.67;;;18.43;;
8458;SDS011;4266;48.816;9.154;2023-04-16T04:30:05;16.83;;;15.13;;
8458;SDS011;4266;48.816;9.154;2023-04-16T04:32:32;15.77;;;13.97;;
8458;SDS011;4266;48.816;9.154;2023-04-16T04:34:59;15.53;;;13.97;;
8458;SDS011;4266;48.816;9.154;2023-04-16T04:37:23;15.17;;;13.67;;
8458;SDS011;4266;48.816;9.154;2023-04-16T04:39:49;15.50;;;13.67;;
8458;SDS011;4266;48.816;9.154;2023-04-16T04:42:16;15.30;;;13.57;;
8458;SDS011;4266;48.816;9.154;2023-04-16T04:44:41;15.47;;;13.67;;
8458;SDS011;4266;48.816;9.154;2023-04-16T04:47:07;17.20;;;14.30;;
8458;SDS011;4266;48.816;9.154;2023-04-16T04:49:32;16.17;;;13.77;;
8458;SDS011;4266;48.816;9.154;2023-04-16T04:51:58;15.87;;;14.03;;
8458;SDS011;4266;48.816;9.154;2023-04-16T04:54:25;16.90;;;14.43;;
8458;SDS011;4266;48.816;9.154;2023-04-16T04:56:50;16.13;;;14.50;;
8458;SDS011;4266;48.816;9.154;2023-04-16T04:59:17;15.43;;;13.53;;
8458;SDS011;4266;48.816;9.154;2023-04-16T05:01:42;17.70;;;14.90;;
8458;SDS011;4266;48.816;9.154;2023-04-16T05:04:08;15.73;;;14.10;;
8458;SDS011;4266;48.816;9.154;2023-04-16T05:06:34;16.23;;;14.50;;
8458;SDS011;4266;48.816;9.154;2023-04-16T05:08:59;17.13;;;14.77;;
8458;SDS011;4266;48.816;9.154;2023-04-16T05:11:25;17.07;;;14.53;;
8458;SDS011;4266;48.816;9.154;2023-04-16T05:13:51;14.53;;;12.90;;
8458;SDS011;4266;48.816;9.154;2023-04-16T05:16:16;15.50;;;13.90;;
8458;SDS011;4266;48.816;9.154;2023-04-16T05:18:42;14.90;;;13.37;;
8458;SDS011;4266;48.816;9.154;2023-04-16T05:21:08;16.70;;;14.57;;
8458;SDS011;4266;48.816;9.154;2023-04-16T05:23:33;17.20;;;15.07;;
8458;SDS011;4266;48.816;9.154;2023-04-16T05:25:59;21.37;;;16.30;;
8458;SDS011;4266;48.816;9.154;2023-04-16T05:28:25;22.67;;;18.53;;
8458;SDS011;4266;48.816;9.154;2023-04-16T05:30:50;24.47;;;19.37;;
8458;SDS011;4266;48.816;9.154;2023-04-16T05:33:16;24.27;;;19.77;;
8458;SDS011;4266;48.816;9.154;2023-04-16T05:35:42;24.43;;;20.80;;
8458;SDS011;4266;48.816;9.154;2023-04-16T05:38:08;27.07;;;20.90;;
8458;SDS011;4266;48.816;9.154;2023-04-16T05:40:35;29.47;;;21.10;;
8458;SDS011;4266;48.816;9.154;2023-04-16T05:43:01;28.10;;;21.60;;
8458;SDS011;4266;48.816;9.154;2023-04-16T05:45:27;27.77;;;22.63;;
8458;SDS011;4266;48.816;9.154;2023-04-16T05:47:54;31.20;;;23.57;;
8458;SDS011;4266;48.816;9.154;2023-04-16T05:50:19;28.40;;;22.43;;
8458;SDS011;4266;48.816;9.154;2023-04-16T05:52:46;31.97;;;22.93;;
8458;SDS011;4266;48.816;9.154;2023-04-16T05:55:12;28.13;;;22.63;;
8458;SDS011;4266;48.816;9.154;2023-04-16T05:57:38;31.03;;;23.67;;
8458;SDS011;4266;48.816;9.154;2023-04-16T06:00:04;34.83;;;24.20;;
8458;SDS011;4266;48.816;9.154;2023-04-16T06:02:32;36.30;;;25.53;;
8458;SDS011;4266;48.816;9.154;2023-04-16T06:04:58;32.13;;;23.90;;
8458;SDS011;4266;48.816;9.154;2023-04-16T06:07:24;36.23;;;24.50;;
8458;SDS011;4266;48.816;9.154;2023-04-16T06:09:50;32.67;;;25.03;;
8458;SDS011;4266;48.816;9.154;2023-04-16T06:12:17;33.00;;;24.50;;
8458;SDS011;4266;48.816;9.154;2023-04-16T06:14:42;32.27;;;24.37;;
8458;SDS011;4266;48.816;9.154;2023-04-16T06:17:08;33.70;;;24.00;;
8458;SDS011;4266;48.816;9.154;2023-04-16T06:19:34;31.87;;;24.43;;
8458;SDS011;4266;48.816;9.154;2023-04-16T06:22:01;27.53;;;22.53;;
8458;SDS011;4266;48.816;9.154;2023-04-16T06:24:27;33.70;;;25.13;;
8458;SDS011;4266;48.816;9.154;2023-04-16T06:26:53;28.33;;;23.30;;
8458;SDS011;4266;48.816;9.154;2023-04-16T06:29:19;33.43;;;24.60;;
8458;SDS011;4266;48.816;9.154;2023-04-16T06:31:45;31.97;;;24.10;;
8458;SDS011;4266;48.816;9.154;2023-04-16T06:34:11;31.17;;;24.27;;
8458;SDS011;4266;48.816;9.154;2023-04-16T06:36:37;31.40;;;23.90;;
8458;SDS011;4266;48.816;9.154;2023-04-16T06:39:04;31.73;;;24.33;;
8458;SDS011;4266;48.816;9.154;2023-04-16T06:41:30;32.33;;;24.73;;
8458;SDS011;4266;48.816;9.154;2023-04-16T06:43:55;29.60;;;23.90;;
8458;SDS011;4266;48.816;9.154;2023-04-16T06:46:21;33.70;;;25.03;;
8458;SDS011;4266;48.816;9.154;2023-04-16T06:48:47;30.10;;;23.47;;
8458;SDS011;4266;48.816;9.154;2023-04-16T06:51:12;31.00;;;24.00;;
8458;SDS011;4266;48.816;9.154;2023-04-16T06:53:38;29.20;;;23.03;;
8458;SDS011;4266;48.816;9.154;2023-04-16T06:56:04;29.33;;;23.53;;
8458;SDS011;4266;48.816;9.154;2023-04-16T06:58:30;30.63;;;23.60;;
8458;SDS011;4266;48.816;9.154;2023-04-16T07:00:56;29.73;;;24.63;;
8458;SDS011;4266;48.816;9.154;2023-04-16T07:03:22;30.43;;;24.23;;
8458;SDS011;4266;48.816;9.154;2023-04-16T07:05:49;30.10;;;24.17;;
8458;SDS011;4266;48.816;9.154;2023-04-16T07:08:15;29.57;;;22.57;;
8458;SDS011;4266;48.816;9.154;2023-04-16T07:10:40;33.17;;;24.10;;
8458;SDS011;4266;48.816;9.154;2023-04-16T07:13:06;28.00;;;23.10;;
8458;SDS011;4266;48.816;9.154;2023-04-16T07:15:32;29.50;;;23.87;;
8458;SDS011;4266;48.816;9.154;2023-04-16T07:17:58;28.13;;;22.57;;
8458;SDS011;4266;48.816;9.154;2023-04-16T07:20:23;25.70;;;21.60;;
8458;SDS011;4266;48.816;9.154;2023-04-16T07:22:50;29.97;;;22.97;;
8458;SDS011;4266;48.816;9.154;2023-04-16T07:25:15;27.53;;;22.67;;
8458;SDS011;4266;48.816;9.154;2023-04-16T07:27:41;26.00;;;20.67;;
8458;SDS011;4266;48.816;9.154;2023-04-16T07:30:07;24.80;;;21.53;;
8458;SDS011;4266;48.816;9.154;2023-04-16T07:32:33;23.60;;;21.00;;
8458;SDS011;4266;48.816;9.154;2023-04-16T07:34:59;24.00;;;20.47;;
8458;SDS011;4266;48.816;9.154;2023-04-16T07:37:25;24.20;;;20.50;;
8458;SDS011;4266;48.816;9.154;2023-04-16T07:39:51;23.93;;;19.83;;
8458;SDS011;4266;48.816;9.154;2023-04-16T07:42:20;24.87;;;20.97;;
8458;SDS011;4266;48.816;9.154;2023-04-16T07:44:45;23.57;;;20.73;;
8458;SDS011;4266;48.816;9.154;2023-04-16T07:47:11;23.83;;;20.00;;
8458;SDS011;4266;48.816;9.154;2023-04-16T07:49:37;23.40;;;20.63;;
8458;SDS011;4266;48.816;9.154;2023-04-16T07:52:03;23.23;;;20.53;;
8458;SDS011;4266;48.816;9.154;2023-04-16T07:54:28;23.03;;;19.40;;
8458;SDS011;4266;48.816;9.154;2023-04-16T07:56:55;25.53;;;19.97;;
8458;SDS011;4266;48.816;9.154;2023-04-16T07:59:21;24.27;;;20.37;;
8458;SDS011;4266;48.816;9.154;2023-04-16T08:01:47;22.03;;;19.63;;
8458;SDS011;4266;48.816;9.154;2023-04-16T08:04:12;24.07;;;18.87;;
8458;SDS011;4266;48.816;9.154;2023-04-16T08:06:38;21.03;;;18.77;;
8458;SDS011;4266;48.816;9.154;2023-04-16T08:09:04;22.23;;;19.83;;
8458;SDS011;4266;48.816;9.154;2023-04-16T08:11:30;21.10;;;18.80;;
8458;SDS011;4266;48.816;9.154;2023-04-16T08:13:56;21.37;;;18.23;;
8458;SDS011;4266;48.816;9.154;2023-04-16T08:16:22;20.43;;;18.23;;
8458;SDS011;4266;48.816;9.154;2023-04-16T08:18:48;19.43;;;17.33;;
8458;SDS011;4266;48.816;9.154;2023-04-16T08:21:14;20.13;;;18.03;;
8458;SDS011;4266;48.816;9.154;2023-04-16T08:23:39;18.77;;;16.83;;
8458;SDS011;4266;48.816;9.154;2023-04-16T08:26:05;19.57;;;17.53;;
8458;SDS011;4266;48.816;9.154;2023-04-16T08:28:31;21.97;;;16.83;;
8458;SDS011;4266;48.816;9.154;2023-04-16T08:30:57;18.90;;;16.80;;
8458;SDS011;4266;48.816;9.154;2023-04-16T08:33:22;20.10;;;17.90;;
8458;SDS011;4266;48.816;9.154;2023-04-16T08:35:48;19.20;;;17.20;;
8458;SDS011;4266;48.816;9.154;2023-04-16T08:38:14;19.00;;;17.00;;
8458;SDS011;4266;48.816;9.154;2023-04-16T08:40:39;21.67;;;19.47;;
8458;SDS011;4266;48.816;9.154;2023-04-16T08:43:08;19.93;;;17.80;;
8458;SDS011;4266;48.816;9.154;2023-04-16T08:45:34;20.13;;;17.93;;
8458;SDS011;4266;48.816;9.154;2023-04-16T08:48:00;18.90;;;16.90;;
8458;SDS011;4266;48.816;9.154;2023-04-16T08:50:27;20.57;;;17.53;;
8458;SDS011;4266;48.816;9.154;2023-04-16T08:52:57;19.17;;;17.17;;
8458;SDS011;4266;48.816;9.154;2023-04-16T08:55:22;19.73;;;16.73;;
8458;SDS011;4266;48.816;9.154;2023-04-16T08:57:49;19.63;;;17.50;;
8458;SDS011;4266;48.816;9.154;2023-04-16T09:00:16;20.37;;;17.47;;
8458;SDS011;4266;48.816;9.154;2023-04-16T09:02:41;19.67;;;16.50;;
8458;SDS011;4266;48.816;9.154;2023-04-16T09:05:09;18.43;;;16.43;;
8458;SDS011;4266;48.816;9.154;2023-04-16T09:10:28;18.43;;;16.47;;
8458;SDS011;4266;48.816;9.154;2023-04-16T09:12:55;18.33;;;16.40;;
8458;SDS011;4266;48.816;9.154;2023-04-16T09:15:20;17.60;;;15.53;;
8458;SDS011;4266;48.816;9.154;2023-04-16T09:17:46;18.07;;;16.17;;
8458;SDS011;4266;48.816;9.154;2023-04-16T09:20:12;19.57;;;16.40;;
8458;SDS011;4266;48.816;9.154;2023-04-16T09:22:38;20.37;;;15.27;;
8458;SDS011;4266;48.816;9.154;2023-04-16T09:25:03;19.60;;;17.17;;
8458;SDS011;4266;48.816;9.154;2023-04-16T09:27:32;20.73;;;16.13;;
8458;SDS011;4266;48.816;9.154;2023-04-16T09:29:57;19.77;;;16.63;;
8458;SDS011;4266;48.816;9.154;2023-04-16T09:32:24;22.20;;;16.80;;
8458;SDS011;4266;48.816;9.154;2023-04-16T09:34:53;19.70;;;16.93;;
8458;SDS011;4266;48.816;9.154;2023-04-16T09:37:20;19.33;;;17.00;;
8458;SDS011;4266;48.816;9.154;2023-04-16T09:39:52;19.70;;;16.13;;
8458;SDS011;4266;48.816;9.154;2023-04-16T09:42:20;18.57;;;16.20;;
8458;SDS011;4266;48.816;9.154;2023-04-16T09:44:48;18.37;;;16.37;;
8458;SDS011;4266;48.816;9.154;2023-04-16T09:47:12;20.97;;;18.77;;
8458;SDS011;4266;48.816;9.154;2023-04-16T09:49:40;20.00;;;17.57;;
8458;SDS011;4266;48.816;9.154;2023-04-16T09:52:08;20.33;;;17.50;;
8458;SDS011;4266;48.816;9.154;2023-04-16T09:54:31;20.03;;;17.30;;
8458;SDS011;4266;48.816;9.154;2023-04-16T09:56:59;18.93;;;16.57;;
8458;SDS011;4266;48.816;9.154;2023-04-16T09:59:23;21.07;;;15.93;;
8458;SDS011;4266;48.816;9.154;2023-04-16T10:01:49;20.47;;;16.30;;
8458;SDS011;4266;48.816;9.154;2023-04-16T10:04:15;20.93;;;17.27;;
8458;SDS011;4266;48.816;9.154;2023-04-16T10:06:40;19.23;;;17.03;;
8458;SDS011;4266;48.816;9.154;2023-04-16T10:09:06;20.33;;;16.93;;
8458;SDS011;4266;48.816;9.154;2023-04-16T10:11:32;19.77;;;17.30;;
8458;SDS011;4266;48.816;9.154;2023-04-16T10:13:57;19.30;;;17.20;;
8458;SDS011;4266;48.816;9.154;2023-04-16T10:16:23;19.43;;;17.33;;
8458;SDS011;4266;48.816;9.154;2023-04-16T10:18:49;19.17;;;16.80;;
8458;SDS011;4266;48.816;9.154;2023-04-16T10:21:15;21.67;;;18.27;;
8458;SDS011;4266;48.816;9.154;2023-04-16T10:23:41;19.77;;;17.63;;
8458;SDS011;4266;48.816;9.154;2023-04-16T10:26:08;19.20;;;17.00;;
8458;SDS011;4266;48.816;9.154;2023-04-16T10:28:34;20.00;;;17.80;;
8458;SDS011;4266;48.816;9.154;2023-04-16T10:31:00;18.17;;;16.10;;
8458;SDS011;4266;48.816;9.154;2023-04-16T10:33:27;19.27;;;17.17;;
8458;SDS011;4266;48.816;9.154;2023-04-16T10:35:52;21.40;;;16.70;;
8458;SDS011;4266;48.816;9.154;2023-04-16T10:38:19;17.40;;;15.60;;
8458;SDS011;4266;48.816;9.154;2023-04-16T10:40:45;20.13;;;16.83;;
8458;SDS011;4266;48.816;9.154;2023-04-16T10:43:15;20.97;;;16.87;;
8458;SDS011;4266;48.816;9.154;2023-04-16T10:45:37;18.30;;;16.20;;
8458;SDS011;4266;48.816;9.154;2023-04-16T10:48:04;19.53;;;16.00;;
8458;SDS011;4266;48.816;9.154;2023-04-16T10:50:33;17.77;;;15.87;;
8458;SDS011;4266;48.816;9.154;2023-04-16T10:53:15;16.63;;;14.83;;
8458;SDS011;4266;48.816;9.154;2023-04-16T10:55:37;18.73;;;16.17;;
8458;SDS011;4266;48.816;9.154;2023-04-16T10:58:00;16.20;;;14.50;;
8458;SDS011;4266;48.816;9.154;2023-04-16T11:00:26;17.40;;;14.67;;
8458;SDS011;4266;48.816;9.154;2023-04-16T11:02:52;14.40;;;13.00;;
8458;SDS011;4266;48.816;9.154;2023-04-16T11:05:20;17.83;;;14.13;;
8458;SDS011;4266;48.816;9.154;2023-04-16T11:07:46;15.77;;;14.17;;
8458;SDS011;4266;48.816;9.154;2023-04-16T11:10:11;15.33;;;13.57;;
8458;SDS011;4266;48.816;9.154;2023-04-16T11:12:38;15.63;;;14.13;;
8458;SDS011;4266;48.816;9.154;2023-04-16T11:15:04;15.43;;;13.33;;
8458;SDS011;4266;48.816;9.154;2023-04-16T11:17:32;14.33;;;12.93;;
8458;SDS011;4266;48.816;9.154;2023-04-16T11:19:57;13.57;;;12.17;;
8458;SDS011;4266;48.816;9.154;2023-04-16T11:22:23;12.53;;;11.33;;
8458;SDS011;4266;48.816;9.154;2023-04-16T11:24:53;14.50;;;11.87;;
8458;SDS011;4266;48.816;9.154;2023-04-16T11:27:18;12.63;;;11.43;;
8458;SDS011;4266;48.816;9.154;2023-04-16T11:29:43;12.17;;;10.97;;
8458;SDS011;4266;48.816;9.154;2023-04-16T11:32:09;11.47;;;10.27;;
8458;SDS011;4266;48.816;9.154;2023-04-16T11:34:42;11.47;;;10.37;;
8458;SDS011;4266;48.816;9.154;2023-04-16T11:37:08;12.30;;;10.53;;
8458;SDS011;4266;48.816;9.154;2023-04-16T11:39:36;11.20;;;10.10;;
8458;SDS011;4266;48.816;9.154;2023-04-16T11:41:59;11.00;;;9.97;;
8458;SDS011;4266;48.816;9.154;2023-04-16T11:44:25;11.10;;;10.00;;
8458;SDS011;4266;48.816;9.154;2023-04-16T11:46:51;11.23;;;10.20;;
8458;SDS011;4266;48.816;9.154;2023-04-16T11:51:51;10.23;;;9.23;;
8458;SDS011;4266;48.816;9.154;2023-04-16T11:54:18;8.97;;;8.23;;
8458;SDS011;4266;48.816;9.154;2023-04-16T11:56:44;9.40;;;8.60;;
8458;SDS011;4266;48.816;9.154;2023-04-16T11:59:11;9.43;;;8.53;;
8458;SDS011;4266;48.816;9.154;2023-04-16T12:01:36;9.23;;;8.40;;
8458;SDS011;4266;48.816;9.154;2023-04-16T12:04:01;9.17;;;8.27;;
8458;SDS011;4266;48.816;9.154;2023-04-16T12:06:28;8.63;;;7.93;;
8458;SDS011;4266;48.816;9.154;2023-04-16T12:08:53;8.73;;;7.93;;
8458;SDS011;4266;48.816;9.154;2023-04-16T12:11:19;8.73;;;8.03;;
8458;SDS011;4266;48.816;9.154;2023-04-16T12:16:36;7.30;;;6.70;;
8458;SDS011;4266;48.816;9.154;2023-04-16T12:19:01;7.47;;;6.87;;
8458;SDS011;4266;48.816;9.154;2023-04-16T12:21:43;7.93;;;7.23;;
8458;SDS011;4266;48.816;9.154;2023-04-16T12:24:10;7.80;;;7.10;;
8458;SDS011;4266;48.816;9.154;2023-04-16T12:26:39;7.80;;;7.20;;
8458;SDS011;4266;48.816;9.154;2023-04-16T12:31:44;7.03;;;6.50;;
8458;SDS011;4266;48.816;9.154;2023-04-16T12:36:41;7.60;;;6.90;;
8458;SDS011;4266;48.816;9.154;2023-04-16T12:39:06;7.60;;;7.00;;
8458;SDS011;4266;48.816;9.154;2023-04-16T12:41:34;7.83;;;7.23;;
8458;SDS011;4266;48.816;9.154;2023-04-16T12:44:02;9.27;;;8.47;;
8458;SDS011;4266;48.816;9.154;2023-04-16T12:46:28;8.60;;;7.90;;
8458;SDS011;4266;48.816;9.154;2023-04-16T12:48:55;8.60;;;7.90;;
8458;SDS011;4266;48.816;9.154;2023-04-16T12:51:21;7.70;;;7.00;;
8458;SDS011;4266;48.816;9.154;2023-04-16T12:53:47;8.60;;;7.80;;
8458;SDS011;4266;48.816;9.154;2023-04-16T12:56:14;11.07;;;10.20;;
8458;SDS011;4266;48.816;9.154;2023-04-16T12:58:39;8.53;;;7.83;;
8458;SDS011;4266;48.816;9.154;2023-04-16T13:01:05;8.60;;;7.80;;
8458;SDS011;4266;48.816;9.154;2023-04-16T13:03:31;9.40;;;8.37;;
8458;SDS011;4266;48.816;9.154;2023-04-16T13:05:56;8.67;;;7.87;;
8458;SDS011;4266;48.816;9.154;2023-04-16T13:08:22;9.73;;;8.93;;
8458;SDS011;4266;48.816;9.154;2023-04-16T13:10:48;9.63;;;8.73;;
8458;SDS011;4266;48.816;9.154;2023-04-16T13:13:14;9.20;;;8.40;;
8458;SDS011;4266;48.816;9.154;2023-04-16T13:15:40;9.87;;;8.87;;
8458;SDS011;4266;48.816;9.154;2023-04-16T13:18:05;9.33;;;8.43;;
8458;SDS011;4266;48.816;9.154;2023-04-16T13:20:32;9.30;;;8.50;;
8458;SDS011;4266;48.816;9.154;2023-04-16T13:22:58;10.83;;;9.87;;
8458;SDS011;4266;48.816;9.154;2023-04-16T13:25:24;9.80;;;8.90;;
8458;SDS011;4266;48.816;9.154;2023-04-16T13:27:50;10.10;;;9.10;;
8458;SDS011;4266;48.816;9.154;2023-04-16T13:30:16;9.93;;;9.03;;
8458;SDS011;4266;48.816;9.154;2023-04-16T13:32:42;10.37;;;9.33;;
8458;SDS011;4266;48.816;9.154;2023-04-16T13:35:09;10.63;;;9.63;;
8458;SDS011;4266;48.816;9.154;2023-04-16T13:37:34;10.83;;;9.17;;
8458;SDS011;4266;48.816;9.154;2023-04-16T13:39:59;9.53;;;8.73;;
8458;SDS011;4266;48.816;9.154;2023-04-16T13:42:25;10.40;;;9.50;;
8458;SDS011;4266;48.816;9.154;2023-04-16T13:44:53;10.87;;;9.83;;
8458;SDS011;4266;48.816;9.154;2023-04-16T13:47:18;10.77;;;9.77;;
8458;SDS011;4266;48.816;9.154;2023-04-16T13:49:44;11.23;;;10.13;;
8458;SDS011;4266;48.816;9.154;2023-04-16T13:52:10;10.90;;;9.90;;
8458;SDS011;4266;48.816;9.154;2023-04-16T13:54:36;11.43;;;10.33;;
8458;SDS011;4266;48.816;9.154;2023-04-16T13:57:01;14.90;;;13.33;;
8458;SDS011;4266;48.816;9.154;2023-04-16T13:59:27;10.50;;;9.50;;
8458;SDS011;4266;48.816;9.154;2023-04-16T14:01:53;11.33;;;10.23;;
8458;SDS011;4266;48.816;9.154;2023-04-16T14:04:19;10.53;;;9.53;;
8458;SDS011;4266;48.816;9.154;2023-04-16T14:06:45;11.77;;;10.60;;
8458;SDS011;4266;48.816;9.154;2023-04-16T14:09:11;11.53;;;10.43;;
8458;SDS011;4266;48.816;9.154;2023-04-16T14:11:37;12.47;;;11.23;;
8458;SDS011;4266;48.816;9.154;2023-04-16T14:14:03;11.30;;;10.27;;
8458;SDS011;4266;48.816;9.154;2023-04-16T14:16:28;11.13;;;10.13;;
8458;SDS011;4266;48.816;9.154;2023-04-16T14:18:54;12.87;;;10.50;;
8458;SDS011;4266;48.816;9.154;2023-04-16T14:21:20;11.50;;;10.40;;
8458;SDS011;4266;48.816;9.154;2023-04-16T14:23:45;12.50;;;11.30;;
8458;SDS011;4266;48.816;9.154;2023-04-16T14:26:11;12.33;;;11.13;;
8458;SDS011;4266;48.816;9.154;2023-04-16T14:28:38;12.33;;;11.17;;
8458;SDS011;4266;48.816;9.154;2023-04-16T14:31:03;16.17;;;11.80;;
8458;SDS011;4266;48.816;9.154;2023-04-16T14:33:29;12.93;;;11.63;;
8458;SDS011;4266;48.816;9.154;2023-04-16T14:35:55;13.33;;;12.03;;
8458;SDS011;4266;48.816;9.154;2023-04-16T14:38:21;13.90;;;12.50;;
8458;SDS011;4266;48.816;9.154;2023-04-16T14:40:47;15.53;;;13.93;;
8458;SDS011;4266;48.816;9.154;2023-04-16T14:43:14;14.30;;;12.90;;
8458;SDS011;4266;48.816;9.154;2023-04-16T14:45:40;15.63;;;13.90;;
8458;SDS011;4266;48.816;9.154;2023-04-16T14:48:06;14.53;;;13.07;;
8458;SDS011;4266;48.816;9.154;2023-04-16T14:50:40;15.43;;;13.13;;
8458;SDS011;4266;48.816;9.154;2023-04-16T14:53:07;15.13;;;13.63;;
8458;SDS011;4266;48.816;9.154;2023-04-16T14:55:33;15.97;;;13.53;;
8458;SDS011;4266;48.816;9.154;2023-04-16T14:57:58;18.20;;;15.50;;
8458;SDS011;4266;48.816;9.154;2023-04-16T15:00:25;14.03;;;12.53;;
8458;SDS011;4266;48.816;9.154;2023-04-16T15:02:50;16.27;;;14.57;;